Time;durP1;ratioP1;P1;durP2;ratioP2;P2;SDS_P1;SDS_P2;PMS_P1;PMS_P2;Temp;Humidity;BMP_temperature;BMP_pressure;BME280_temperature;BME280_humidity;BME280_pressure;Samples;Min_cycle;Max_cycle;Signal;HPM_P1;HPM_P2
2021/10/11 00:00:09;;;;;;;29.88;14.07;;;;;;;;;;5110905;28;20030;-71
2021/10/11 00:02:35;;;;;;;34.40;16.13;;;;;;;;;;5110456;28;20501;-71
2021/10/11 00:05:03;;;;;;;27.90;12.38;;;;;;;;;;5114066;28;20023;-71
2021/10/11 00:07:29;;;;;;;23.17;11.60;;;;;;;;;;5111080;28;20154;-71
2021/10/11 00:09:55;;;;;;;24.15;14.02;;;;;;;;;;5110618;28;20455;-71
2021/10/11 00:12:25;;;;;;;22.63;12.75;;;;;;;;;;5104492;28;20064;-71
2021/10/11 00:14:53;;;;;;;24.75;12.68;;;;;;;;;;5110431;28;20028;-71
2021/10/11 00:17:20;;;;;;;34.22;13.50;;;;;;;;;;5111682;28;20081;-71
2021/10/11 00:19:50;;;;;;;24.45;12.65;;;;;;;;;;5112132;28;20024;-71
2021/10/11 00:22:16;;;;;;;27.27;12.05;;;;;;;;;;5110547;28;20118;-71
2021/10/11 00:24:42;;;;;;;22.85;11.63;;;;;;;;;;5110349;28;20040;-71
2021/10/11 00:27:08;;;;;;;26.40;11.95;;;;;;;;;;5109412;28;20020;-71
2021/10/11 00:29:34;;;;;;;24.13;12.65;;;;;;;;;;5110105;28;20027;-71
2021/10/11 00:32:03;;;;;;;24.13;11.90;;;;;;;;;;5113912;28;20093;-71
2021/10/11 00:34:29;;;;;;;27.88;12.07;;;;;;;;;;5110300;28;20039;-70
2021/10/11 00:36:55;;;;;;;23.83;11.55;;;;;;;;;;5110218;28;20039;-71
2021/10/11 00:39:21;;;;;;;22.73;11.63;;;;;;;;;;5109533;28;20024;-71
2021/10/11 00:41:47;;;;;;;23.20;12.07;;;;;;;;;;5109594;28;20032;-70
2021/10/11 00:44:13;;;;;;;27.40;12.30;;;;;;;;;;5112313;28;20031;-71
2021/10/11 00:46:39;;;;;;;24.88;11.70;;;;;;;;;;5111499;28;20521;-71
2021/10/11 00:49:05;;;;;;;24.67;11.85;;;;;;;;;;5109542;28;20031;-71
2021/10/11 00:51:31;;;;;;;25.70;12.30;;;;;;;;;;5109699;28;20097;-70
2021/10/11 00:53:57;;;;;;;22.17;11.65;;;;;;;;;;5109619;28;20471;-71
2021/10/11 00:56:23;;;;;;;27.88;11.60;;;;;;;;;;5110771;28;20486;-71
2021/10/11 00:58:49;;;;;;;21.27;9.77;;;;;;;;;;5111812;28;20111;-71
2021/10/11 01:01:15;;;;;;;22.20;9.68;;;;;;;;;;5109310;28;20069;-71
2021/10/11 01:03:41;;;;;;;23.83;10.25;;;;;;;;;;5109398;28;20032;-71
2021/10/11 01:06:07;;;;;;;20.25;9.80;;;;;;;;;;5109367;28;20475;-71
2021/10/11 01:08:33;;;;;;;18.25;9.43;;;;;;;;;;5109641;28;20031;-71
2021/10/11 01:11:00;;;;;;;20.45;9.13;;;;;;;;;;5107782;28;20036;-70
2021/10/11 01:13:26;;;;;;;26.92;11.43;;;;;;;;;;5109451;28;20486;-70
2021/10/11 01:15:52;;;;;;;21.25;11.15;;;;;;;;;;5109098;28;20043;-70
2021/10/11 01:18:18;;;;;;;20.02;9.30;;;;;;;;;;5109024;28;20023;-70
2021/10/11 01:20:44;;;;;;;19.80;10.02;;;;;;;;;;5109283;28;20103;-70
2021/10/11 01:23:10;;;;;;;20.00;8.77;;;;;;;;;;5111933;28;20030;-70
2021/10/11 01:25:36;;;;;;;21.15;10.07;;;;;;;;;;5110389;28;20032;-70
2021/10/11 01:28:02;;;;;;;20.95;9.68;;;;;;;;;;5109058;28;20034;-70
2021/10/11 01:30:28;;;;;;;20.52;8.82;;;;;;;;;;5109181;28;20536;-70
2021/10/11 01:32:54;;;;;;;18.92;9.50;;;;;;;;;;5108636;28;20127;-70
2021/10/11 01:35:20;;;;;;;18.38;9.65;;;;;;;;;;5110504;28;20475;-70
2021/10/11 01:37:47;;;;;;;19.75;9.00;;;;;;;;;;5110549;28;20138;-71
2021/10/11 01:40:14;;;;;;;24.05;9.77;;;;;;;;;;5108877;28;20066;-71
2021/10/11 01:42:40;;;;;;;24.75;11.10;;;;;;;;;;5108641;28;20106;-70
2021/10/11 01:45:07;;;;;;;17.60;9.77;;;;;;;;;;5108721;28;20110;-71
2021/10/11 01:47:33;;;;;;;21.90;9.55;;;;;;;;;;5092901;28;20032;-70
2021/10/11 01:49:59;;;;;;;17.75;8.88;;;;;;;;;;5112024;28;20027;-70
2021/10/11 01:52:25;;;;;;;18.95;8.70;;;;;;;;;;5108822;28;20126;-70
2021/10/11 01:54:51;;;;;;;19.52;8.65;;;;;;;;;;5108113;28;20115;-70
2021/10/11 01:57:17;;;;;;;16.27;7.07;;;;;;;;;;5108293;28;20035;-71
2021/10/11 01:59:44;;;;;;;18.05;8.07;;;;;;;;;;5108965;28;20093;-70
2021/10/11 02:02:10;;;;;;;18.48;7.97;;;;;;;;;;5111526;28;20039;-70
2021/10/11 02:04:36;;;;;;;19.45;8.38;;;;;;;;;;5110838;28;20486;-71
2021/10/11 02:07:02;;;;;;;16.98;8.10;;;;;;;;;;5102671;28;20035;-70
2021/10/11 02:09:28;;;;;;;16.42;7.32;;;;;;;;;;5108341;28;20073;-70
2021/10/11 02:11:54;;;;;;;14.13;6.22;;;;;;;;;;5108403;28;20091;-70
2021/10/11 02:14:20;;;;;;;16.05;7.05;;;;;;;;;;5110563;28;20076;-70
2021/10/11 02:16:46;;;;;;;16.08;7.50;;;;;;;;;;5110193;28;20083;-70
2021/10/11 02:19:12;;;;;;;13.90;6.88;;;;;;;;;;5107943;28;20031;-70
2021/10/11 02:21:38;;;;;;;14.40;6.68;;;;;;;;;;5108423;28;20034;-70
2021/10/11 02:24:04;;;;;;;18.60;7.32;;;;;;;;;;5108767;28;20027;-70
2021/10/11 02:26:30;;;;;;;17.33;7.05;;;;;;;;;;5108980;28;20055;-70
2021/10/11 02:28:56;;;;;;;14.27;7.03;;;;;;;;;;5111061;28;20055;-70
2021/10/11 02:31:22;;;;;;;15.05;6.85;;;;;;;;;;5108039;28;20046;-70
2021/10/11 02:33:49;;;;;;;14.88;6.28;;;;;;;;;;5102567;28;20058;-70
2021/10/11 02:36:15;;;;;;;15.23;6.30;;;;;;;;;;5108372;28;20027;-70
2021/10/11 02:38:41;;;;;;;12.25;6.13;;;;;;;;;;5108491;28;20020;-70
2021/10/11 02:41:07;;;;;;;11.43;6.13;;;;;;;;;;5111202;28;20034;-70
2021/10/11 02:43:33;;;;;;;15.65;6.95;;;;;;;;;;5108607;28;20482;-69
2021/10/11 02:45:59;;;;;;;13.20;6.97;;;;;;;;;;5108529;28;20027;-70
2021/10/11 02:48:25;;;;;;;18.55;7.03;;;;;;;;;;5108233;28;20513;-70
2021/10/11 02:50:51;;;;;;;14.88;6.90;;;;;;;;;;5107571;28;20028;-70
2021/10/11 02:53:17;;;;;;;15.38;6.57;;;;;;;;;;5110692;28;20074;-70
2021/10/11 02:55:43;;;;;;;12.02;6.18;;;;;;;;;;5109420;28;20046;-70
2021/10/11 02:58:09;;;;;;;13.38;6.10;;;;;;;;;;5108043;28;20028;-70
2021/10/11 03:00:35;;;;;;;12.52;6.53;;;;;;;;;;5108246;28;20471;-70
2021/10/11 03:03:01;;;;;;;12.95;5.82;;;;;;;;;;5107983;28;20030;-70
2021/10/11 03:05:27;;;;;;;15.00;6.53;;;;;;;;;;5108734;28;20090;-70
2021/10/11 03:07:53;;;;;;;15.32;5.85;;;;;;;;;;5114653;28;20028;-70
2021/10/11 03:10:19;;;;;;;13.25;6.07;;;;;;;;;;5111442;28;20114;-70
2021/10/11 03:12:45;;;;;;;10.52;4.85;;;;;;;;;;5111822;28;20035;-74
2021/10/11 03:15:11;;;;;;;11.93;5.68;;;;;;;;;;5111606;28;20031;-68
2021/10/11 03:17:37;;;;;;;13.45;6.13;;;;;;;;;;5111520;28;20110;-68
2021/10/11 03:20:04;;;;;;;12.52;6.00;;;;;;;;;;5114806;28;20069;-68
2021/10/11 03:22:30;;;;;;;10.05;4.15;;;;;;;;;;5113313;28;20031;-68
2021/10/11 03:24:56;;;;;;;11.00;4.88;;;;;;;;;;5111656;28;20103;-68
2021/10/11 03:27:22;;;;;;;13.25;4.93;;;;;;;;;;5111245;28;20340;-68
2021/10/11 03:29:48;;;;;;;11.05;5.07;;;;;;;;;;5110928;28;20069;-68
2021/10/11 03:32:14;;;;;;;14.00;5.13;;;;;;;;;;5113589;28;20044;-68
2021/10/11 03:34:40;;;;;;;12.85;4.90;;;;;;;;;;5112243;28;20043;-69
2021/10/11 03:37:06;;;;;;;10.40;4.47;;;;;;;;;;5105226;28;20031;-68
2021/10/11 03:39:32;;;;;;;10.35;4.78;;;;;;;;;;5111044;28;20073;-69
2021/10/11 03:41:58;;;;;;;10.52;4.80;;;;;;;;;;5111435;28;20030;-68
2021/10/11 03:44:24;;;;;;;11.20;5.20;;;;;;;;;;5112412;28;20475;-68
2021/10/11 03:46:50;;;;;;;13.77;5.22;;;;;;;;;;5113297;28;20031;-68
2021/10/11 03:49:16;;;;;;;13.60;4.93;;;;;;;;;;5110058;28;20024;-69
2021/10/11 03:51:42;;;;;;;13.70;4.75;;;;;;;;;;5110944;28;20490;-68
2021/10/11 03:54:08;;;;;;;9.95;4.95;;;;;;;;;;5111023;28;20054;-68
2021/10/11 03:56:34;;;;;;;10.50;5.00;;;;;;;;;;5111213;28;20462;-68
2021/10/11 03:59:01;;;;;;;9.68;4.57;;;;;;;;;;5109807;28;20028;-68
2021/10/11 04:01:27;;;;;;;8.80;3.95;;;;;;;;;;5110844;28;20023;-68
2021/10/11 04:03:54;;;;;;;9.02;3.55;;;;;;;;;;5110233;28;20027;-68
2021/10/11 04:06:20;;;;;;;8.10;4.03;;;;;;;;;;5110936;28;20019;-68
2021/10/11 04:08:48;;;;;;;9.80;4.40;;;;;;;;;;5110250;28;20470;-68
2021/10/11 04:13:43;;;;;;;11.27;4.90;;;;;;;;;;5111435;28;20031;-68
2021/10/11 04:16:09;;;;;;;11.50;4.45;;;;;;;;;;5110705;28;20027;-68
2021/10/11 04:18:35;;;;;;;10.60;5.10;;;;;;;;;;5109724;28;20020;-68
2021/10/11 04:21:01;;;;;;;8.60;4.15;;;;;;;;;;5110786;28;20024;-68
2021/10/11 04:23:27;;;;;;;8.52;4.20;;;;;;;;;;5110605;28;20032;-68
2021/10/11 04:25:53;;;;;;;14.70;4.55;;;;;;;;;;5113167;28;20051;-68
2021/10/11 04:28:20;;;;;;;9.75;3.85;;;;;;;;;;5110507;28;20108;-68
2021/10/11 04:30:46;;;;;;;11.27;4.32;;;;;;;;;;5110174;28;20024;-68
2021/10/11 04:33:13;;;;;;;11.27;4.43;;;;;;;;;;5109728;28;20111;-68
2021/10/11 04:35:39;;;;;;;13.35;4.50;;;;;;;;;;5111223;28;20031;-68
2021/10/11 04:38:06;;;;;;;9.98;3.67;;;;;;;;;;5112437;28;20024;-68
2021/10/11 04:40:32;;;;;;;8.77;3.63;;;;;;;;;;5100763;28;20106;-68
2021/10/11 04:42:58;;;;;;;12.27;4.32;;;;;;;;;;5106156;28;20035;-68
2021/10/11 04:45:28;;;;;;;9.75;3.65;;;;;;;;;;5104612;28;20032;-68
2021/10/11 04:47:55;;;;;;;6.43;3.55;;;;;;;;;;5104344;28;20055;-68
2021/10/11 04:50:21;;;;;;;7.18;3.42;;;;;;;;;;5102954;28;20022;-68
2021/10/11 04:52:47;;;;;;;8.25;3.70;;;;;;;;;;5111178;28;20115;-68
2021/10/11 04:55:13;;;;;;;7.85;3.75;;;;;;;;;;5109862;28;20115;-68
2021/10/11 04:57:39;;;;;;;11.70;3.88;;;;;;;;;;5109523;28;20026;-69
2021/10/11 05:00:05;;;;;;;12.05;3.72;;;;;;;;;;5110055;28;20446;-69
2021/10/11 05:02:31;;;;;;;11.00;3.80;;;;;;;;;;5109314;28;20084;-69
2021/10/11 05:04:57;;;;;;;8.48;3.88;;;;;;;;;;5112484;28;20023;-69
2021/10/11 05:07:23;;;;;;;9.45;3.95;;;;;;;;;;5097607;28;20024;-69
2021/10/11 05:09:49;;;;;;;8.10;3.45;;;;;;;;;;5103005;28;20087;-69
2021/10/11 05:12:15;;;;;;;8.77;3.75;;;;;;;;;;5103232;28;20042;-68
2021/10/11 05:14:41;;;;;;;9.32;3.72;;;;;;;;;;5102743;28;20040;-69
2021/10/11 05:17:07;;;;;;;9.32;3.67;;;;;;;;;;5102666;28;20024;-69
2021/10/11 05:19:33;;;;;;;8.93;3.55;;;;;;;;;;5101794;28;20103;-69
2021/10/11 05:21:59;;;;;;;10.68;3.55;;;;;;;;;;5106610;28;20096;-68
2021/10/11 05:24:26;;;;;;;7.78;3.35;;;;;;;;;;5107578;28;20027;-73
2021/10/11 05:26:52;;;;;;;8.93;3.60;;;;;;;;;;5108734;28;20040;-73
2021/10/11 05:29:19;;;;;;;9.70;4.10;;;;;;;;;;5111695;28;20031;-73
2021/10/11 05:31:47;;;;;;;7.57;3.80;;;;;;;;;;5110445;28;20031;-73
2021/10/11 05:34:13;;;;;;;9.63;4.40;;;;;;;;;;5108925;28;20039;-72
2021/10/11 05:36:39;;;;;;;10.02;4.03;;;;;;;;;;5108705;28;20086;-72
2021/10/11 05:39:05;;;;;;;10.95;4.93;;;;;;;;;;5108689;28;20037;-72
2021/10/11 05:41:31;;;;;;;8.18;3.78;;;;;;;;;;5109439;28;20032;-72
2021/10/11 05:43:57;;;;;;;12.52;4.95;;;;;;;;;;5112255;28;20035;-72
2021/10/11 05:46:23;;;;;;;16.17;6.45;;;;;;;;;;5108239;28;20031;-73
2021/10/11 05:48:49;;;;;;;13.50;5.38;;;;;;;;;;5108861;28;20070;-73
2021/10/11 05:51:15;;;;;;;11.65;5.40;;;;;;;;;;5108813;28;20043;-74
2021/10/11 05:53:41;;;;;;;11.43;5.38;;;;;;;;;;5108498;28;20028;-74
2021/10/11 05:56:07;;;;;;;11.27;4.90;;;;;;;;;;5112027;28;20030;-74
2021/10/11 05:58:33;;;;;;;12.32;4.35;;;;;;;;;;5109175;28;20386;-74
2021/10/11 06:00:59;;;;;;;10.45;5.07;;;;;;;;;;5108548;28;20023;-74
2021/10/11 06:03:25;;;;;;;11.20;4.80;;;;;;;;;;5108859;28;20497;-74
2021/10/11 06:05:52;;;;;;;12.43;4.75;;;;;;;;;;5108116;28;20609;-74
2021/10/11 06:08:18;;;;;;;11.40;4.28;;;;;;;;;;5111222;28;20104;-74
2021/10/11 06:10:44;;;;;;;14.45;4.70;;;;;;;;;;5109841;28;20020;-74
2021/10/11 06:13:10;;;;;;;16.38;10.05;;;;;;;;;;5108721;28;20552;-75
2021/10/11 06:15:36;;;;;;;11.25;4.63;;;;;;;;;;5108164;28;20084;-75
2021/10/11 06:18:02;;;;;;;12.25;5.15;;;;;;;;;;5108800;28;20028;-76
2021/10/11 06:20:28;;;;;;;11.98;4.78;;;;;;;;;;5109257;28;20480;-74
2021/10/11 06:22:54;;;;;;;8.95;4.75;;;;;;;;;;5111098;28;20054;-74
2021/10/11 06:25:20;;;;;;;11.07;4.60;;;;;;;;;;5108711;28;20425;-75
2021/10/11 06:27:47;;;;;;;8.57;4.25;;;;;;;;;;5108284;28;20031;-74
2021/10/11 06:30:13;;;;;;;7.15;3.72;;;;;;;;;;5108428;28;20099;-75
2021/10/11 06:32:39;;;;;;;7.68;3.15;;;;;;;;;;5108375;28;20122;-74
2021/10/11 06:35:05;;;;;;;8.60;3.67;;;;;;;;;;5111524;28;20255;-74
2021/10/11 06:37:31;;;;;;;7.90;3.90;;;;;;;;;;5110416;28;20538;-75
2021/10/11 06:39:57;;;;;;;8.57;3.58;;;;;;;;;;5108383;28;20107;-74
2021/10/11 06:42:23;;;;;;;7.45;3.53;;;;;;;;;;5111255;28;20301;-74
2021/10/11 06:44:49;;;;;;;8.73;3.40;;;;;;;;;;5111808;28;20036;-74
2021/10/11 06:47:15;;;;;;;8.65;3.35;;;;;;;;;;5114747;28;20534;-74
2021/10/11 06:49:42;;;;;;;8.55;3.63;;;;;;;;;;5106856;28;20062;-74
2021/10/11 06:52:08;;;;;;;8.52;3.83;;;;;;;;;;5104960;28;20039;-74
2021/10/11 06:54:34;;;;;;;8.85;4.18;;;;;;;;;;5105301;28;20028;-73
2021/10/11 06:57:00;;;;;;;7.78;3.30;;;;;;;;;;5104536;28;20386;-73
2021/10/11 06:59:26;;;;;;;9.07;3.50;;;;;;;;;;5105686;28;20081;-73
2021/10/11 07:01:52;;;;;;;7.13;3.28;;;;;;;;;;5105371;28;20028;-73
2021/10/11 07:04:19;;;;;;;8.90;3.15;;;;;;;;;;5103681;28;20031;-74
2021/10/11 07:06:45;;;;;;;6.65;3.22;;;;;;;;;;5109002;28;20027;-74
2021/10/11 07:09:11;;;;;;;6.70;3.33;;;;;;;;;;5105188;28;20016;-74
2021/10/11 07:11:37;;;;;;;8.05;3.58;;;;;;;;;;5105601;28;20031;-74
2021/10/11 07:14:03;;;;;;;6.75;3.55;;;;;;;;;;5104793;28;20023;-74
2021/10/11 07:16:30;;;;;;;8.90;3.10;;;;;;;;;;5106331;28;20025;-74
2021/10/11 07:18:56;;;;;;;5.97;2.97;;;;;;;;;;5107834;28;20482;-73
2021/10/11 07:21:22;;;;;;;4.95;2.65;;;;;;;;;;5107224;28;20012;-74
2021/10/11 07:23:48;;;;;;;7.03;2.90;;;;;;;;;;5110710;28;20470;-74
2021/10/11 07:26:14;;;;;;;4.80;3.00;;;;;;;;;;5103830;28;20019;-73
2021/10/11 07:28:40;;;;;;;8.13;3.17;;;;;;;;;;5105017;28;20112;-73
2021/10/11 07:31:06;;;;;;;5.82;3.33;;;;;;;;;;5105518;28;20027;-74
2021/10/11 07:33:32;;;;;;;5.13;2.83;;;;;;;;;;5105420;28;20044;-69
2021/10/11 07:35:58;;;;;;;5.82;2.45;;;;;;;;;;5102970;28;20103;-70
2021/10/11 07:38:24;;;;;;;6.88;3.00;;;;;;;;;;5103625;28;20117;-70
2021/10/11 07:40:51;;;;;;;8.43;3.20;;;;;;;;;;5104754;28;20016;-70
2021/10/11 07:43:16;;;;;;;7.15;3.38;;;;;;;;;;5104926;28;20046;-70
2021/10/11 07:45:42;;;;;;;6.43;3.20;;;;;;;;;;5104445;28;20448;-70
2021/10/11 07:48:08;;;;;;;5.28;2.80;;;;;;;;;;5104088;28;20027;-70
2021/10/11 07:50:34;;;;;;;8.40;2.78;;;;;;;;;;5105077;28;20019;-69
2021/10/11 07:53:00;;;;;;;5.60;2.38;;;;;;;;;;5105457;28;20428;-69
2021/10/11 07:55:26;;;;;;;4.45;2.25;;;;;;;;;;5104950;28;20024;-69
2021/10/11 07:57:52;;;;;;;5.05;2.70;;;;;;;;;;5103438;28;20367;-70
2021/10/11 08:00:20;;;;;;;6.15;2.63;;;;;;;;;;5104325;28;20084;-69
2021/10/11 08:02:46;;;;;;;6.10;2.77;;;;;;;;;;5103845;28;20041;-69
2021/10/11 08:05:15;;;;;;;5.20;2.85;;;;;;;;;;5103516;28;20293;-68
2021/10/11 08:07:42;;;;;;;5.97;2.50;;;;;;;;;;5103464;28;20027;-69
2021/10/11 08:10:08;;;;;;;6.22;2.53;;;;;;;;;;5104322;28;20020;-68
2021/10/11 08:12:35;;;;;;;7.05;2.58;;;;;;;;;;5104262;28;20024;-68
2021/10/11 08:15:01;;;;;;;4.47;2.20;;;;;;;;;;5101655;28;20333;-69
2021/10/11 08:17:27;;;;;;;5.07;1.80;;;;;;;;;;5103953;28;20028;-68
2021/10/11 08:19:53;;;;;;;3.92;1.65;;;;;;;;;;5104145;28;20020;-68
2021/10/11 08:22:22;;;;;;;4.57;2.22;;;;;;;;;;5103829;28;20027;-68
2021/10/11 08:24:51;;;;;;;2.78;1.52;;;;;;;;;;5102705;28;20591;-68
2021/10/11 08:27:18;;;;;;;4.00;1.63;;;;;;;;;;5103710;28;20032;-68
2021/10/11 08:29:51;;;;;;;3.25;1.70;;;;;;;;;;5104076;28;20031;-68
2021/10/11 08:32:17;;;;;;;6.68;2.22;;;;;;;;;;5103722;28;20032;-68
2021/10/11 08:34:43;;;;;;;6.38;1.88;;;;;;;;;;5103478;28;20083;-68
2021/10/11 08:37:09;;;;;;;7.72;1.73;;;;;;;;;;5104180;28;20420;-68
2021/10/11 08:39:36;;;;;;;4.30;1.70;;;;;;;;;;5102810;28;20028;-68
2021/10/11 08:42:04;;;;;;;3.95;1.35;;;;;;;;;;5102446;28;20040;-68
2021/10/11 08:44:30;;;;;;;4.40;1.55;;;;;;;;;;5105055;28;20111;-68
2021/10/11 08:47:00;;;;;;;3.00;1.60;;;;;;;;;;5101810;28;20107;-68
2021/10/11 08:49:26;;;;;;;3.15;1.35;;;;;;;;;;5104534;28;20072;-68
2021/10/11 08:51:52;;;;;;;4.95;1.48;;;;;;;;;;5105427;28;20031;-68
2021/10/11 08:54:18;;;;;;;5.35;1.60;;;;;;;;;;5104930;28;20379;-68
2021/10/11 08:56:44;;;;;;;4.22;1.55;;;;;;;;;;5104072;28;20058;-68
2021/10/11 08:59:12;;;;;;;4.55;1.60;;;;;;;;;;5105260;28;20119;-68
2021/10/11 09:01:38;;;;;;;4.35;1.80;;;;;;;;;;5105229;28;20022;-68
2021/10/11 09:04:24;;;;;;;6.90;2.40;;;;;;;;;;5105604;28;20098;-68
2021/10/11 09:07:06;;;;;;;4.85;2.20;;;;;;;;;;5104993;28;20032;-68
2021/10/11 09:09:33;;;;;;;5.40;2.10;;;;;;;;;;5103555;28;20046;-68
2021/10/11 09:11:59;;;;;;;7.75;2.42;;;;;;;;;;5098438;28;20475;-68
2021/10/11 09:14:26;;;;;;;4.68;2.30;;;;;;;;;;5111031;28;20498;-68
2021/10/11 09:17:03;;;;;;;4.38;2.20;;;;;;;;;;5111879;28;20028;-68
2021/10/11 09:19:33;;;;;;;6.13;2.00;;;;;;;;;;5108710;28;20066;-68
2021/10/11 09:21:59;;;;;;;4.28;1.88;;;;;;;;;;5108842;28;20386;-68
2021/10/11 09:24:25;;;;;;;4.30;1.90;;;;;;;;;;5109355;28;20031;-68
2021/10/11 09:26:52;;;;;;;4.40;2.17;;;;;;;;;;5108959;28;20028;-67
2021/10/11 09:29:30;;;;;;;3.83;1.98;;;;;;;;;;5111606;28;20135;-68
2021/10/11 09:31:58;;;;;;;7.65;2.58;;;;;;;;;;5111967;28;20046;-70
2021/10/11 09:34:24;;;;;;;6.22;2.38;;;;;;;;;;5108845;28;20065;-69
2021/10/11 09:36:58;;;;;;;7.53;2.72;;;;;;;;;;5102953;28;20039;-70
2021/10/11 09:39:24;;;;;;;7.72;2.42;;;;;;;;;;5108716;28;20023;-70
2021/10/11 09:41:51;;;;;;;5.97;2.35;;;;;;;;;;5109024;28;20111;-70
2021/10/11 09:44:18;;;;;;;8.70;2.75;;;;;;;;;;5109867;28;20462;-69
2021/10/11 09:46:48;;;;;;;5.43;2.10;;;;;;;;;;5110121;28;20098;-71
2021/10/11 09:49:14;;;;;;;5.55;2.10;;;;;;;;;;5102779;28;20030;-70
2021/10/11 09:51:41;;;;;;;5.85;2.13;;;;;;;;;;5108451;28;20066;-69
2021/10/11 09:54:08;;;;;;;4.20;2.10;;;;;;;;;;5108996;28;20153;-70
2021/10/11 09:56:34;;;;;;;6.68;2.75;;;;;;;;;;5092848;28;20031;-70
2021/10/11 09:59:01;;;;;;;5.60;1.98;;;;;;;;;;5110637;28;20442;-70
2021/10/11 10:01:28;;;;;;;5.05;2.08;;;;;;;;;;5102655;28;20040;-70
2021/10/11 10:03:56;;;;;;;5.80;2.17;;;;;;;;;;5105184;28;20030;-70
2021/10/11 10:06:24;;;;;;;10.98;2.20;;;;;;;;;;5102718;28;20035;-70
2021/10/11 10:08:52;;;;;;;6.38;1.90;;;;;;;;;;5100370;28;20023;-70
2021/10/11 10:11:19;;;;;;;4.38;2.13;;;;;;;;;;5102152;28;20129;-70
2021/10/11 10:13:49;;;;;;;5.75;2.17;;;;;;;;;;5102844;28;20081;-70
2021/10/11 10:16:17;;;;;;;3.47;1.80;;;;;;;;;;5105197;28;20020;-70
2021/10/11 10:18:43;;;;;;;3.50;1.50;;;;;;;;;;5101974;28;20119;-70
2021/10/11 10:21:10;;;;;;;3.03;1.45;;;;;;;;;;5101376;28;20408;-70
2021/10/11 10:23:38;;;;;;;4.70;1.70;;;;;;;;;;5103911;28;20027;-69
2021/10/11 10:26:06;;;;;;;7.25;1.80;;;;;;;;;;5106256;28;20060;-70
2021/10/11 10:28:44;;;;;;;5.53;1.70;;;;;;;;;;5107258;28;20032;-69
2021/10/11 10:31:10;;;;;;;3.58;1.60;;;;;;;;;;5105770;28;20020;-69
2021/10/11 10:33:40;;;;;;;2.65;1.40;;;;;;;;;;5107780;28;20044;-69
2021/10/11 10:36:27;;;;;;;4.82;1.73;;;;;;;;;;5092362;28;20210;-70
2021/10/11 10:39:09;;;;;;;3.55;1.52;;;;;;;;;;5097463;28;20040;-72
2021/10/11 10:41:37;;;;;;;4.18;1.60;;;;;;;;;;5100916;28;20031;-67
2021/10/11 10:44:20;;;;;;;4.97;1.70;;;;;;;;;;5109385;28;20368;-68
2021/10/11 10:47:04;;;;;;;3.53;1.80;;;;;;;;;;5094381;28;20394;-66
2021/10/11 10:49:34;;;;;;;3.42;1.48;;;;;;;;;;5110274;28;20059;-67
2021/10/11 10:52:02;;;;;;;4.80;1.60;;;;;;;;;;5110126;28;20043;-67
2021/10/11 10:54:35;;;;;;;4.82;1.60;;;;;;;;;;5110018;28;20106;-67
2021/10/11 10:57:01;;;;;;;3.22;1.80;;;;;;;;;;5093266;28;20028;-69
2021/10/11 10:59:27;;;;;;;4.50;1.88;;;;;;;;;;5104698;28;20101;-68
2021/10/11 11:02:10;;;;;;;3.65;1.73;;;;;;;;;;5110233;28;20035;-67
2021/10/11 11:04:36;;;;;;;3.03;1.50;;;;;;;;;;5103640;28;20036;-66
2021/10/11 11:07:04;;;;;;;3.20;1.80;;;;;;;;;;5103256;28;20020;-66
2021/10/11 11:09:30;;;;;;;;;;;;;;;;;;5105961;28;20058;-70
2021/10/11 11:11:56;;;;;;;4.57;1.60;;;;;;;;;;5103841;28;19969;-70
2021/10/11 11:14:22;;;;;;;2.90;1.70;;;;;;;;;;5105632;28;20376;-69
2021/10/11 11:16:51;;;;;;;4.68;1.77;;;;;;;;;;5110501;28;20024;-71
2021/10/11 11:19:17;;;;;;;5.70;2.00;;;;;;;;;;5107929;28;20024;-70
2021/10/11 11:21:43;;;;;;;3.10;1.50;;;;;;;;;;5106976;28;20019;-70
2021/10/11 11:24:09;;;;;;;3.55;1.63;;;;;;;;;;5111653;28;20394;-69
2021/10/11 11:26:44;;;;;;;5.53;2.13;;;;;;;;;;5107410;28;20073;-70
2021/10/11 11:29:14;;;;;;;3.63;1.67;;;;;;;;;;5110355;28;20032;-69
2021/10/11 11:31:40;;;;;;;3.88;2.00;;;;;;;;;;5114081;28;20500;-70
2021/10/11 11:34:06;;;;;;;3.17;1.50;;;;;;;;;;5110481;28;20117;-71
2021/10/11 11:36:32;;;;;;;5.18;1.90;;;;;;;;;;5109819;28;20035;-69
2021/10/11 11:38:58;;;;;;;3.58;1.75;;;;;;;;;;5110879;28;20016;-70
2021/10/11 11:41:24;;;;;;;4.60;1.83;;;;;;;;;;5112557;28;20043;-70
2021/10/11 11:43:50;;;;;;;6.70;1.70;;;;;;;;;;5099913;28;20034;-70
2021/10/11 11:46:16;;;;;;;3.65;1.65;;;;;;;;;;5109244;28;20509;-69
2021/10/11 11:48:43;;;;;;;8.00;1.90;;;;;;;;;;5105075;28;20084;-69
2021/10/11 11:51:10;;;;;;;3.58;1.63;;;;;;;;;;5110697;28;20467;-69
2021/10/11 11:53:38;;;;;;;3.13;1.58;;;;;;;;;;5110833;28;20027;-70
2021/10/11 11:56:05;;;;;;;3.38;1.48;;;;;;;;;;5114719;28;20023;-70
2021/10/11 11:58:32;;;;;;;3.33;1.63;;;;;;;;;;5112811;28;20035;-69
2021/10/11 12:00:59;;;;;;;3.70;1.52;;;;;;;;;;5110783;28;20019;-69
2021/10/11 12:03:28;;;;;;;4.38;1.80;;;;;;;;;;5109149;28;20109;-69
2021/10/11 12:05:59;;;;;;;5.90;1.70;;;;;;;;;;5105372;28;20054;-69
2021/10/11 12:08:25;;;;;;;4.22;1.73;;;;;;;;;;5105361;28;20255;-69
2021/10/11 12:11:02;;;;;;;3.13;1.60;;;;;;;;;;5106573;28;20049;-69
2021/10/11 12:13:29;;;;;;;3.03;1.50;;;;;;;;;;5100433;28;20072;-69
2021/10/11 12:15:59;;;;;;;3.83;1.85;;;;;;;;;;5106130;28;20083;-69
2021/10/11 12:18:34;;;;;;;3.72;1.73;;;;;;;;;;5106417;28;20101;-69
2021/10/11 12:21:00;;;;;;;3.72;1.55;;;;;;;;;;5105403;28;20073;-69
2021/10/11 12:23:35;;;;;;;4.00;2.05;;;;;;;;;;5105055;28;20135;-69
2021/10/11 12:26:02;;;;;;;3.20;1.55;;;;;;;;;;5106109;28;20494;-69
2021/10/11 12:28:28;;;;;;;5.65;1.60;;;;;;;;;;5106019;28;20108;-69
2021/10/11 12:31:00;;;;;;;5.55;1.55;;;;;;;;;;5106191;28;20491;-69
2021/10/11 12:33:34;;;;;;;2.90;1.67;;;;;;;;;;5106552;28;20044;-69
2021/10/11 12:36:01;;;;;;;3.22;1.58;;;;;;;;;;5104682;28;20029;-69
2021/10/11 12:38:34;;;;;;;3.20;1.60;;;;;;;;;;5103694;28;20123;-69
2021/10/11 12:41:07;;;;;;;4.68;1.90;;;;;;;;;;5105987;28;20028;-69
2021/10/11 12:43:33;;;;;;;4.25;1.73;;;;;;;;;;5105254;28;20024;-65
2021/10/11 12:46:05;;;;;;;6.75;2.28;;;;;;;;;;5108093;28;20030;-65
2021/10/11 12:48:31;;;;;;;3.83;1.85;;;;;;;;;;5102632;28;20318;-65
2021/10/11 12:50:57;;;;;;;5.22;2.13;;;;;;;;;;5106924;28;20028;-65
2021/10/11 12:53:30;;;;;;;5.03;1.80;;;;;;;;;;5111440;28;20036;-65
2021/10/11 12:55:56;;;;;;;4.90;2.00;;;;;;;;;;5112014;28;20016;-65
2021/10/11 12:58:26;;;;;;;6.18;1.85;;;;;;;;;;5106898;28;20498;-65
2021/10/11 13:00:52;;;;;;;5.68;2.25;;;;;;;;;;5098266;28;20080;-65
2021/10/11 13:03:18;;;;;;;4.95;2.08;;;;;;;;;;5106074;28;20042;-65
2021/10/11 13:05:44;;;;;;;6.57;2.08;;;;;;;;;;5103984;28;20098;-65
2021/10/11 13:08:10;;;;;;;5.10;2.20;;;;;;;;;;5105174;28;20023;-65
2021/10/11 13:10:36;;;;;;;4.72;2.00;;;;;;;;;;5106134;28;20028;-65
2021/10/11 13:13:02;;;;;;;5.28;1.90;;;;;;;;;;5104273;28;20051;-65
2021/10/11 13:15:31;;;;;;;5.22;2.13;;;;;;;;;;5099356;28;20433;-65
2021/10/11 13:17:57;;;;;;;4.00;1.90;;;;;;;;;;5100892;28;20395;-65
2021/10/11 13:20:23;;;;;;;4.80;2.38;;;;;;;;;;5104352;28;20012;-65
2021/10/11 13:22:49;;;;;;;5.55;2.47;;;;;;;;;;5105978;28;20098;-65
2021/10/11 13:25:15;;;;;;;4.97;2.30;;;;;;;;;;5109049;28;20030;-65
2021/10/11 13:27:41;;;;;;;8.68;2.25;;;;;;;;;;5108989;28;20031;-65
2021/10/11 13:30:40;;;;;;;4.30;2.20;;;;;;;;;;5100473;28;20424;-65
2021/10/11 14:29:50;;;;;;;26.08;4.00;;;;;;;;;;5103996;28;20059;-66
2021/10/11 15:54:44;;;;;;;21.88;9.73;;;;;;;;;;5110417;28;20020;-67
2021/10/11 15:59:57;;;;;;;34.35;21.92;;;;;;;;;;5092445;28;20032;-67
2021/10/11 16:04:56;;;;;;;24.10;13.98;;;;;;;;;;5112931;28;20027;-67
2021/10/11 16:07:22;;;;;;;26.60;18.40;;;;;;;;;;5107842;28;20016;-66
2021/10/11 16:09:48;;;;;;;17.92;8.85;;;;;;;;;;5100766;28;20508;-65
2021/10/11 16:12:14;;;;;;;21.42;9.60;;;;;;;;;;5103761;28;20040;-66
2021/10/11 16:14:40;;;;;;;24.13;8.23;;;;;;;;;;5089618;28;20077;-65
2021/10/11 16:17:06;;;;;;;21.15;11.77;;;;;;;;;;5099378;28;20032;-67
2021/10/11 16:19:33;;;;;;;15.68;8.70;;;;;;;;;;5082248;28;20032;-67
2021/10/11 16:21:59;;;;;;;15.95;7.10;;;;;;;;;;5103541;28;20023;-65
2021/10/11 16:24:25;;;;;;;13.18;6.15;;;;;;;;;;5107134;28;20028;-66
2021/10/11 16:26:51;;;;;;;11.57;5.03;;;;;;;;;;5091099;28;20028;-68
2021/10/11 16:29:17;;;;;;;9.70;5.40;;;;;;;;;;5092619;28;20020;-65
2021/10/11 16:31:44;;;;;;;15.70;7.28;;;;;;;;;;5077619;28;20051;-66
2021/10/11 16:34:10;;;;;;;13.13;5.95;;;;;;;;;;5108329;28;20447;-65
2021/10/11 16:36:36;;;;;;;17.33;8.75;;;;;;;;;;5110650;28;20073;-66
2021/10/11 16:39:03;;;;;;;28.13;14.18;;;;;;;;;;5107929;28;20027;-65
2021/10/11 16:41:29;;;;;;;13.45;6.20;;;;;;;;;;5109582;28;20131;-66
2021/10/11 16:43:56;;;;;;;11.73;6.03;;;;;;;;;;5104265;28;20024;-66
2021/10/11 16:46:22;;;;;;;18.60;10.10;;;;;;;;;;5098651;28;20110;-66
2021/10/11 16:48:48;;;;;;;18.75;9.73;;;;;;;;;;5105360;28;20107;-67
2021/10/11 16:51:16;;;;;;;14.10;7.90;;;;;;;;;;5108394;28;20053;-67
2021/10/11 16:54:13;;;;;;;17.35;9.90;;;;;;;;;;5104121;28;20042;-68
2021/10/11 16:56:39;;;;;;;19.95;10.18;;;;;;;;;;5102438;28;20020;-69
2021/10/11 16:59:10;;;;;;;19.17;9.90;;;;;;;;;;5103537;28;20081;-68
2021/10/11 17:01:36;;;;;;;19.92;10.18;;;;;;;;;;5104873;28;20031;-68